createdAt,value
2018-08-31T00:02:04.236Z,5.77
2018-08-31T00:04:44.026Z,8.97
2018-08-31T00:07:23.092Z,7.10
2018-08-31T00:12:09.932Z,5.87
2018-08-31T00:14:38.389Z,7.10
2018-08-31T00:17:06.450Z,11.27
2018-08-31T00:19:34.488Z,9.90
2018-08-31T00:22:02.450Z,4.53
2018-08-31T00:24:41.750Z,9.13
2018-08-31T00:27:20.949Z,7.80
2018-08-31T00:31:03.084Z,7.13
2018-08-31T00:33:48.866Z,5.77
2018-08-31T00:36:28.671Z,9.30
2018-08-31T00:40:13.316Z,9.40
2018-08-31T00:44:58.214Z,7.57
2018-08-31T00:47:26.178Z,11.60
2018-08-31T00:49:54.997Z,7.50
2018-08-31T00:52:23.025Z,8.03
2018-08-31T00:54:51.489Z,6.97
2018-08-31T00:57:19.511Z,6.83
2018-08-31T00:59:47.468Z,6.07
2018-08-31T01:02:15.401Z,5.47
2018-08-31T01:04:43.288Z,12.00
2018-08-31T01:07:11.250Z,9.13
2018-08-31T01:09:39.691Z,5.07
2018-08-31T01:12:08.059Z,5.53
2018-08-31T01:14:36.025Z,8.67
2018-08-31T01:17:04.083Z,4.37
2018-08-31T01:19:32.073Z,9.87
2018-08-31T01:22:00.115Z,10.27
2018-08-31T01:24:28.394Z,7.43
2018-08-31T01:26:56.494Z,7.97
2018-08-31T01:29:24.420Z,5.57
2018-08-31T01:31:52.915Z,6.23
2018-08-31T01:34:20.802Z,3.60
2018-08-31T01:36:48.869Z,4.57
2018-08-31T01:39:16.816Z,4.83
2018-08-31T01:41:44.789Z,5.20
2018-08-31T01:44:12.705Z,8.60
2018-08-31T01:46:40.740Z,5.97
2018-08-31T01:49:08.751Z,9.87
2018-08-31T01:51:36.830Z,12.67
2018-08-31T01:54:05.071Z,11.37
2018-08-31T01:56:32.956Z,7.57
2018-08-31T01:59:01.083Z,5.93
2018-08-31T02:01:29.093Z,7.30
2018-08-31T02:03:59.405Z,11.57
2018-08-31T02:06:27.389Z,12.13
2018-08-31T02:09:00.951Z,7.47
2018-08-31T02:11:28.854Z,6.57
2018-08-31T02:13:56.759Z,6.63
2018-08-31T02:16:24.766Z,9.00
2018-08-31T02:18:52.788Z,9.33
2018-08-31T02:21:20.861Z,10.40
2018-08-31T02:23:48.995Z,9.47
2018-08-31T02:26:17.157Z,9.43
2018-08-31T02:28:45.054Z,6.80
2018-08-31T02:31:13.055Z,6.20
2018-08-31T02:33:40.972Z,9.63
2018-08-31T02:36:08.880Z,5.03
2018-08-31T02:38:36.853Z,7.53
2018-08-31T02:41:05.170Z,9.03
2018-08-31T02:43:33.241Z,9.40
2018-08-31T02:46:01.298Z,7.17
2018-08-31T02:48:29.237Z,8.73
2018-08-31T02:50:57.154Z,5.90
2018-08-31T02:53:25.171Z,9.27
2018-08-31T02:55:53.072Z,9.33
2018-08-31T02:58:26.351Z,8.37
2018-08-31T03:00:54.311Z,11.73
2018-08-31T03:03:22.305Z,7.07
2018-08-31T03:05:50.296Z,7.77
2018-08-31T03:08:18.282Z,10.33
2018-08-31T03:10:46.290Z,8.43
2018-08-31T03:13:14.267Z,7.73
2018-08-31T03:15:42.275Z,7.30
2018-08-31T03:18:10.529Z,11.03
2018-08-31T03:20:38.455Z,6.67
2018-08-31T03:23:06.674Z,8.50
2018-08-31T03:25:34.659Z,6.80
2018-08-31T03:28:02.742Z,9.67
2018-08-31T03:30:30.677Z,9.93
2018-08-31T03:32:58.819Z,7.90
2018-08-31T03:35:26.984Z,14.43
2018-08-31T03:37:55.346Z,12.60
2018-08-31T03:40:23.451Z,12.33
2018-08-31T03:42:52.189Z,8.83
2018-08-31T03:45:20.418Z,9.43
2018-08-31T03:47:48.781Z,9.90
2018-08-31T03:50:16.727Z,10.27
2018-08-31T03:52:44.700Z,10.30
2018-08-31T03:55:12.897Z,9.93
2018-08-31T03:57:41.005Z,9.37
2018-08-31T04:00:10.040Z,8.73
2018-08-31T04:02:38.045Z,9.90
2018-08-31T04:05:06.661Z,11.40
2018-08-31T04:07:34.612Z,10.63
2018-08-31T04:10:02.867Z,14.67
2018-08-31T04:12:30.961Z,10.70
2018-08-31T04:14:58.876Z,11.53
2018-08-31T04:17:27.110Z,14.80
2018-08-31T04:19:55.018Z,16.27
2018-08-31T04:22:25.065Z,9.53
2018-08-31T04:24:52.983Z,12.00
2018-08-31T04:27:20.936Z,14.60
2018-08-31T04:29:48.834Z,8.33
2018-08-31T04:32:16.760Z,10.07
2018-08-31T04:34:44.762Z,8.93
2018-08-31T04:37:12.897Z,13.37
2018-08-31T04:39:40.789Z,9.83
2018-08-31T04:42:08.778Z,7.33
2018-08-31T04:44:36.735Z,10.07
2018-08-31T04:47:04.802Z,8.37
2018-08-31T04:49:32.746Z,12.40
2018-08-31T04:52:00.761Z,11.20
2018-08-31T04:54:28.907Z,11.60
2018-08-31T04:56:56.866Z,14.10
2018-08-31T04:59:24.967Z,12.27
2018-08-31T05:01:52.818Z,13.50
2018-08-31T05:04:20.984Z,12.33
2018-08-31T05:06:49.007Z,8.83
2018-08-31T05:09:17.088Z,10.57
2018-08-31T05:11:45.101Z,7.70
2018-08-31T05:14:13.136Z,8.67
2018-08-31T05:16:41.175Z,13.73
2018-08-31T05:19:09.116Z,13.23
2018-08-31T05:21:37.225Z,11.70
2018-08-31T05:24:05.203Z,9.83
2018-08-31T05:26:33.775Z,8.43
2018-08-31T05:29:02.039Z,11.80
2018-08-31T05:31:30.260Z,11.37
2018-08-31T05:33:58.505Z,13.80
2018-08-31T05:36:26.986Z,15.17
2018-08-31T05:38:55.186Z,12.97
2018-08-31T05:41:23.308Z,9.83
2018-08-31T05:43:51.379Z,12.63
2018-08-31T05:46:19.199Z,14.40
2018-08-31T05:48:47.219Z,8.23
2018-08-31T05:51:15.335Z,10.53
2018-08-31T05:53:43.463Z,7.03
2018-08-31T05:56:11.718Z,11.97
2018-08-31T05:58:39.860Z,7.20
2018-08-31T06:01:07.920Z,11.67
2018-08-31T06:03:35.983Z,14.00
2018-08-31T06:06:04.062Z,11.67
2018-08-31T06:08:31.946Z,10.97
2018-08-31T06:10:59.875Z,9.20
2018-08-31T06:13:28.008Z,10.23
2018-08-31T06:15:55.985Z,13.07
2018-08-31T06:18:24.023Z,9.77
2018-08-31T06:20:52.086Z,8.47
2018-08-31T06:23:20.051Z,8.60
2018-08-31T06:25:48.053Z,11.80
2018-08-31T06:28:16.041Z,8.53
2018-08-31T06:30:43.964Z,11.40
2018-08-31T06:33:11.920Z,14.17
2018-08-31T06:35:40.011Z,11.70
2018-08-31T06:38:08.000Z,10.60
2018-08-31T06:40:36.081Z,8.97
2018-08-31T06:43:04.015Z,7.90
2018-08-31T06:45:32.172Z,7.37
2018-08-31T06:48:00.168Z,8.97
2018-08-31T06:50:28.194Z,8.23
2018-08-31T06:52:56.160Z,7.13
2018-08-31T06:55:24.155Z,9.17
2018-08-31T06:57:53.134Z,8.53
2018-08-31T07:00:21.034Z,8.90
2018-08-31T07:02:49.471Z,12.77
2018-08-31T07:05:19.607Z,8.20
2018-08-31T07:07:47.391Z,9.43
2018-08-31T07:10:16.826Z,8.73
2018-08-31T07:12:47.950Z,10.77
2018-08-31T07:15:15.804Z,12.83
2018-08-31T07:17:44.085Z,10.00
2018-08-31T07:20:11.964Z,11.97
2018-08-31T07:22:39.781Z,12.77
2018-08-31T07:25:07.624Z,11.67
2018-08-31T07:27:35.321Z,10.07
2018-08-31T07:30:06.272Z,14.80
2018-08-31T07:32:40.873Z,9.83
2018-08-31T07:35:08.777Z,14.53
2018-08-31T07:37:36.497Z,9.40
2018-08-31T07:40:04.598Z,11.43
2018-08-31T07:42:32.251Z,9.10
2018-08-31T07:45:00.134Z,8.93
2018-08-31T07:47:28.092Z,9.60
2018-08-31T07:50:02.074Z,5.97
2018-08-31T07:52:30.400Z,8.57
2018-08-31T07:54:58.518Z,8.67
2018-08-31T07:57:29.084Z,9.90
2018-08-31T07:59:57.241Z,11.60
2018-08-31T08:02:25.370Z,10.03
2018-08-31T08:04:53.477Z,8.67
2018-08-31T08:07:21.780Z,8.50
2018-08-31T08:09:50.102Z,11.57
2018-08-31T08:12:18.144Z,8.97
2018-08-31T08:14:46.279Z,13.90
2018-08-31T08:17:14.347Z,9.17
2018-08-31T08:19:42.662Z,10.63
2018-08-31T08:22:10.577Z,10.87
2018-08-31T08:24:40.951Z,10.57
2018-08-31T08:27:09.483Z,10.93
2018-08-31T08:29:37.681Z,9.03
2018-08-31T08:32:05.959Z,7.97
2018-08-31T08:34:34.053Z,9.47
2018-08-31T08:37:02.218Z,8.97
2018-08-31T08:39:30.735Z,8.33
2018-08-31T08:41:58.937Z,10.17
2018-08-31T08:44:27.108Z,10.60
2018-08-31T08:46:55.261Z,11.00
2018-08-31T08:49:23.554Z,7.83
2018-08-31T08:51:51.879Z,6.83
2018-08-31T08:54:19.945Z,8.87
2018-08-31T08:56:48.181Z,6.83
2018-08-31T08:59:17.530Z,7.60
2018-08-31T09:01:47.219Z,6.23
2018-08-31T09:04:15.263Z,4.43
2018-08-31T09:06:43.409Z,4.03
2018-08-31T09:09:12.761Z,4.10
2018-08-31T09:11:41.881Z,4.20
2018-08-31T09:14:10.035Z,8.67
2018-08-31T09:16:38.103Z,8.37
2018-08-31T09:19:06.358Z,5.63
2018-08-31T09:21:34.820Z,6.03
2018-08-31T09:24:03.138Z,4.73
2018-08-31T09:26:31.265Z,4.07
2018-08-31T09:28:59.992Z,3.17
2018-08-31T09:31:28.205Z,7.50
2018-08-31T09:33:56.525Z,9.33
2018-08-31T09:36:24.713Z,6.23
2018-08-31T09:38:52.802Z,4.33
2018-08-31T09:41:21.151Z,3.07
2018-08-31T09:43:49.290Z,5.60
2018-08-31T09:46:17.353Z,4.20
2018-08-31T09:48:45.697Z,2.27
2018-08-31T09:51:13.825Z,3.67
2018-08-31T09:53:44.868Z,4.50
2018-08-31T09:56:20.326Z,3.40
2018-08-31T09:58:50.373Z,1.70
2018-08-31T10:01:38.415Z,2.90
2018-08-31T10:04:06.464Z,4.27
2018-08-31T10:06:34.716Z,3.87
2018-08-31T10:09:04.148Z,5.37
2018-08-31T10:11:32.259Z,3.47
2018-08-31T10:14:01.672Z,3.60
2018-08-31T10:16:29.896Z,3.60
2018-08-31T10:18:57.955Z,3.00
2018-08-31T10:21:26.146Z,3.73
2018-08-31T10:23:56.660Z,4.97
2018-08-31T10:26:24.710Z,2.10
2018-08-31T10:28:52.783Z,3.40
2018-08-31T10:31:21.135Z,4.73
2018-08-31T10:33:49.370Z,4.47
2018-08-31T10:36:17.859Z,5.23
2018-08-31T10:38:46.194Z,7.63
2018-08-31T10:41:14.366Z,4.70
2018-08-31T10:43:42.472Z,3.93
2018-08-31T10:46:10.656Z,4.23
2018-08-31T10:48:38.593Z,5.67
2018-08-31T10:51:06.645Z,3.47
2018-08-31T10:53:34.834Z,4.80
2018-08-31T10:56:02.906Z,5.83
2018-08-31T10:58:30.993Z,5.67
2018-08-31T11:01:03.091Z,2.72
2018-08-31T11:03:33.556Z,4.43
2018-08-31T11:06:01.676Z,5.00
2018-08-31T11:08:29.681Z,3.63
2018-08-31T11:10:57.983Z,2.53
2018-08-31T11:13:26.003Z,5.10
2018-08-31T11:15:54.055Z,6.05
2018-08-31T11:18:22.633Z,5.40
2018-08-31T11:20:51.005Z,4.47
2018-08-31T11:23:18.949Z,4.67
2018-08-31T11:25:47.408Z,4.45
2018-08-31T11:28:15.495Z,3.77
2018-08-31T11:30:43.611Z,3.13
2018-08-31T11:33:11.768Z,6.90
2018-08-31T11:35:40.516Z,4.47
2018-08-31T11:38:08.769Z,3.87
2018-08-31T11:40:36.893Z,5.53
2018-08-31T11:43:05.287Z,3.33
2018-08-31T11:45:33.362Z,3.10
2018-08-31T11:48:02.886Z,6.37
2018-08-31T11:50:31.516Z,4.30
2018-08-31T11:52:59.588Z,2.77
2018-08-31T11:55:27.843Z,5.07
2018-08-31T11:57:55.923Z,4.60
2018-08-31T12:00:24.289Z,2.67
2018-08-31T12:02:52.501Z,4.10
2018-08-31T12:05:20.710Z,4.57
2018-08-31T12:07:49.052Z,2.97
2018-08-31T12:10:17.198Z,2.40
2018-08-31T12:12:45.632Z,3.37
2018-08-31T12:15:13.782Z,3.13
2018-08-31T12:17:41.973Z,6.50
2018-08-31T12:20:10.065Z,4.30
2018-08-31T12:22:38.207Z,5.40
2018-08-31T12:25:06.951Z,3.67
2018-08-31T12:27:35.199Z,3.63
2018-08-31T12:30:03.455Z,4.47
2018-08-31T12:32:32.153Z,5.77
2018-08-31T12:35:02.712Z,3.97
2018-08-31T12:37:35.261Z,5.67
2018-08-31T12:40:03.367Z,6.47
2018-08-31T12:42:32.881Z,4.73
2018-08-31T12:45:00.954Z,4.40
2018-08-31T12:47:29.336Z,2.60
2018-08-31T12:49:57.840Z,3.23
2018-08-31T12:52:25.959Z,3.27
2018-08-31T12:54:53.977Z,5.27
2018-08-31T12:57:22.014Z,3.37
2018-08-31T12:59:59.888Z,3.83
2018-08-31T13:02:29.563Z,1.77
2018-08-31T13:04:57.967Z,4.13
2018-08-31T13:07:26.019Z,3.83
2018-08-31T13:09:54.666Z,2.00
2018-08-31T13:12:22.596Z,2.90
2018-08-31T13:14:50.719Z,4.93
2018-08-31T13:17:18.864Z,4.40
2018-08-31T13:19:47.204Z,3.93
2018-08-31T13:22:16.452Z,6.73
2018-08-31T13:24:44.694Z,5.30
2018-08-31T13:27:12.668Z,5.03
2018-08-31T13:29:40.661Z,5.33
2018-08-31T13:32:08.748Z,3.40
2018-08-31T13:34:36.936Z,4.27
2018-08-31T13:37:05.260Z,3.40
2018-08-31T13:39:33.960Z,3.20
2018-08-31T13:42:02.102Z,2.03
2018-08-31T13:44:30.364Z,2.57
2018-08-31T13:46:58.580Z,3.23
2018-08-31T13:49:26.631Z,2.83
2018-08-31T13:51:54.845Z,4.10
2018-08-31T13:54:23.169Z,6.23
2018-08-31T13:56:51.245Z,5.77
2018-08-31T13:59:19.306Z,4.20
2018-08-31T14:01:49.603Z,3.00
2018-08-31T14:04:17.808Z,2.30
2018-08-31T14:06:45.735Z,4.13
2018-08-31T14:09:13.976Z,2.20
2018-08-31T14:11:42.163Z,3.50
2018-08-31T14:14:10.300Z,2.63
2018-08-31T14:16:38.934Z,2.70
2018-08-31T14:19:08.800Z,3.90
2018-08-31T14:21:37.276Z,4.10
2018-08-31T14:24:06.006Z,3.27
2018-08-31T14:26:34.609Z,2.00
2018-08-31T14:29:03.423Z,2.23
2018-08-31T14:31:31.325Z,5.43
2018-08-31T14:33:59.687Z,2.93
2018-08-31T14:36:27.798Z,5.23
2018-08-31T14:38:56.971Z,6.70
2018-08-31T14:41:28.389Z,3.23
2018-08-31T14:43:56.572Z,6.23
2018-08-31T14:46:24.710Z,3.60
2018-08-31T14:48:52.793Z,2.43
2018-08-31T14:51:29.168Z,3.33
2018-08-31T14:56:32.904Z,4.73
2018-08-31T14:59:01.025Z,3.47
2018-08-31T15:01:29.184Z,4.83
2018-08-31T15:03:57.471Z,3.07
2018-08-31T15:06:26.012Z,2.87
2018-08-31T15:08:54.298Z,3.13
2018-08-31T15:11:22.390Z,3.73
2018-08-31T15:13:50.619Z,5.93
2018-08-31T15:16:18.808Z,2.37
2018-08-31T15:19:06.103Z,3.37
2018-08-31T15:21:34.167Z,3.33
2018-08-31T15:24:02.379Z,2.33
2018-08-31T15:26:30.729Z,1.67
2018-08-31T15:28:58.950Z,2.93
2018-08-31T15:31:27.834Z,4.87
2018-08-31T15:33:55.929Z,4.17
2018-08-31T15:36:23.961Z,3.13
2018-08-31T15:38:52.168Z,2.07
2018-08-31T15:41:20.403Z,4.40
2018-08-31T15:43:49.546Z,3.33
2018-08-31T15:46:17.694Z,3.60
2018-08-31T15:48:47.967Z,3.77
2018-08-31T15:51:17.574Z,1.73
2018-08-31T15:53:52.722Z,2.83
2018-08-31T15:56:20.805Z,3.27
2018-08-31T15:58:49.105Z,3.87
2018-08-31T16:01:17.283Z,2.23
2018-08-31T16:03:47.778Z,4.33
2018-08-31T16:06:15.870Z,3.63
2018-08-31T16:08:43.814Z,5.33
2018-08-31T16:11:13.445Z,1.87
2018-08-31T16:13:49.977Z,4.17
2018-08-31T16:16:18.090Z,6.33
2018-08-31T16:18:47.402Z,2.80
2018-08-31T16:21:15.559Z,5.27
2018-08-31T16:23:43.751Z,3.87
2018-08-31T16:26:12.056Z,2.87
2018-08-31T16:28:40.114Z,4.77
2018-08-31T16:31:08.298Z,3.43
2018-08-31T16:33:36.730Z,4.57
2018-08-31T16:36:05.963Z,3.17
2018-08-31T16:38:37.265Z,7.80
2018-08-31T16:41:13.598Z,5.17
2018-08-31T16:43:52.220Z,4.97
2018-08-31T16:46:20.505Z,6.77
2018-08-31T16:48:50.269Z,1.73
2018-08-31T16:51:18.541Z,4.20
2018-08-31T16:53:47.254Z,3.77
2018-08-31T16:56:15.806Z,4.33
2018-08-31T16:58:44.024Z,3.07
2018-08-31T17:01:12.401Z,2.77
2018-08-31T17:03:40.653Z,3.50
2018-08-31T17:06:10.369Z,4.10
2018-08-31T17:11:23.683Z,5.97
2018-08-31T17:13:58.343Z,3.23
2018-08-31T17:16:26.676Z,3.20
2018-08-31T17:18:57.479Z,6.00
2018-08-31T17:35:22.062Z,2.77
2018-08-31T17:38:10.381Z,7.13
2018-08-31T17:40:42.765Z,4.80
2018-08-31T17:43:22.116Z,2.73
2018-08-31T17:46:02.269Z,6.43
2018-08-31T17:48:54.357Z,3.37
2018-08-31T17:51:30.451Z,3.97
2018-08-31T17:54:14.874Z,4.97
2018-08-31T17:56:44.431Z,4.33
2018-08-31T18:01:57.834Z,5.67
2018-08-31T18:04:36.554Z,4.80
2018-08-31T18:07:10.949Z,6.27
2018-08-31T18:09:55.758Z,3.30
2018-08-31T18:12:24.833Z,4.60
2018-08-31T18:14:53.103Z,5.73
2018-08-31T18:17:24.392Z,6.13
2018-08-31T18:20:13.657Z,2.83
2018-08-31T18:22:58.981Z,3.93
2018-08-31T18:25:31.795Z,4.57
2018-08-31T18:28:01.278Z,7.93
2018-08-31T18:30:30.585Z,5.27
2018-08-31T18:33:08.530Z,5.80
2018-08-31T18:35:57.992Z,4.93
2018-08-31T18:38:25.936Z,6.20
2018-08-31T18:41:04.439Z,3.37
2018-08-31T18:43:42.906Z,7.63
2018-08-31T18:50:03.488Z,4.63
2018-08-31T18:52:37.311Z,8.50
2018-08-31T18:55:15.300Z,6.03
2018-08-31T18:58:09.786Z,3.83
2018-08-31T19:00:38.681Z,3.83
2018-08-31T19:03:25.786Z,4.47
2018-08-31T19:06:07.890Z,5.10
2018-08-31T19:08:37.321Z,7.03
2018-08-31T19:11:20.119Z,7.53
2018-08-31T19:13:54.775Z,6.37
2018-08-31T19:16:30.864Z,3.73
2018-08-31T19:19:14.713Z,5.67
2018-08-31T19:21:43.918Z,3.63
2018-08-31T19:24:11.799Z,3.77
2018-08-31T19:26:40.421Z,6.80
2018-08-31T19:29:08.100Z,4.47
2018-08-31T19:31:38.863Z,4.10
2018-08-31T19:34:06.618Z,8.67
2018-08-31T19:36:35.076Z,4.77
2018-08-31T19:39:04.023Z,5.13
2018-08-31T19:41:33.618Z,4.53
2018-08-31T19:44:01.501Z,5.60
2018-08-31T19:46:31.434Z,7.03
2018-08-31T19:48:59.403Z,4.10
2018-08-31T19:51:27.215Z,3.43
2018-08-31T19:53:55.123Z,5.33
2018-08-31T19:56:22.857Z,6.47
2018-08-31T19:58:51.786Z,6.80
2018-08-31T20:01:20.133Z,4.83
2018-08-31T20:03:48.486Z,3.50
2018-08-31T20:06:16.792Z,8.70
2018-08-31T20:08:45.095Z,6.00
2018-08-31T20:11:14.415Z,8.07
2018-08-31T20:13:42.484Z,3.73
2018-08-31T20:16:10.685Z,4.07
2018-08-31T20:18:40.713Z,4.13
2018-08-31T20:21:08.730Z,3.40
2018-08-31T20:23:45.546Z,8.10
2018-08-31T20:26:19.462Z,5.33
2018-08-31T20:28:47.861Z,5.63
2018-08-31T20:31:16.932Z,3.87
2018-08-31T20:33:46.662Z,5.00
2018-08-31T20:36:15.037Z,6.20
2018-08-31T20:38:43.452Z,4.80
2018-08-31T20:41:14.914Z,3.27
2018-08-31T20:43:42.986Z,4.03
2018-08-31T20:46:11.236Z,5.30
2018-08-31T20:48:39.904Z,6.47
2018-08-31T20:51:08.078Z,4.07
2018-08-31T20:53:49.979Z,5.70
2018-08-31T20:56:18.693Z,8.13
2018-08-31T20:58:46.823Z,5.77
2018-08-31T21:01:16.710Z,5.13
2018-08-31T21:03:44.853Z,5.37
2018-08-31T21:06:13.067Z,5.70
2018-08-31T21:08:41.280Z,4.90
2018-08-31T21:11:09.564Z,3.33
2018-08-31T21:13:37.509Z,7.47
2018-08-31T21:16:05.791Z,9.60
2018-08-31T21:18:34.469Z,5.37
2018-08-31T21:21:02.584Z,6.43
2018-08-31T21:23:30.902Z,6.70
2018-08-31T21:25:58.948Z,6.73
2018-08-31T21:28:30.432Z,6.40
2018-08-31T21:30:58.746Z,5.70
2018-08-31T21:33:26.826Z,6.37
2018-08-31T21:35:55.696Z,5.50
2018-08-31T21:38:23.774Z,4.53
2018-08-31T21:40:54.469Z,5.33
2018-08-31T21:46:02.663Z,7.20
2018-08-31T21:48:30.693Z,5.93
2018-08-31T21:50:58.533Z,4.73
2018-08-31T21:53:26.361Z,2.57
2018-08-31T21:55:54.074Z,3.20
2018-08-31T21:58:21.885Z,6.53
2018-08-31T22:00:49.742Z,7.27
2018-08-31T22:03:17.537Z,6.47
2018-08-31T22:05:49.454Z,6.33
2018-08-31T22:08:17.849Z,9.13
2018-08-31T22:10:51.055Z,6.10
2018-08-31T22:13:18.828Z,4.33
2018-08-31T22:15:46.639Z,4.10
2018-08-31T22:18:14.403Z,8.30
2018-08-31T22:20:42.981Z,5.17
2018-08-31T22:23:10.848Z,6.53
2018-08-31T22:25:39.193Z,3.37
2018-08-31T22:28:11.532Z,4.27
2018-08-31T22:30:45.325Z,7.13
2018-08-31T22:33:13.387Z,4.73
2018-08-31T22:35:42.483Z,6.57
2018-08-31T22:38:11.035Z,6.93
2018-08-31T22:40:39.564Z,7.83
2018-08-31T22:43:07.744Z,4.80
2018-08-31T22:45:36.094Z,8.10
2018-08-31T22:48:05.175Z,4.83
2018-08-31T22:50:43.693Z,9.83
2018-08-31T22:53:11.888Z,6.23
2018-08-31T22:55:40.600Z,5.60
2018-08-31T22:58:12.004Z,6.97
2018-08-31T23:00:40.832Z,3.73
2018-08-31T23:03:09.632Z,6.13
2018-08-31T23:05:38.909Z,3.33
2018-08-31T23:08:07.272Z,10.57
2018-08-31T23:10:35.497Z,6.00
2018-08-31T23:13:03.716Z,4.57
2018-08-31T23:15:31.698Z,6.87
2018-08-31T23:17:59.868Z,7.57
2018-08-31T23:20:28.043Z,9.27
2018-08-31T23:23:02.718Z,11.33
2018-08-31T23:25:36.889Z,6.97
2018-08-31T23:28:05.255Z,7.50
2018-08-31T23:30:33.340Z,6.17
2018-08-31T23:33:02.119Z,8.40
2018-08-31T23:35:30.252Z,7.37
2018-08-31T23:37:58.574Z,6.13
2018-08-31T23:40:26.679Z,5.90
2018-08-31T23:42:55.017Z,7.03
2018-08-31T23:45:23.026Z,7.17
2018-08-31T23:47:51.118Z,8.53
2018-08-31T23:50:19.372Z,5.73
2018-08-31T23:52:47.539Z,8.10
2018-08-31T23:55:15.602Z,5.87
2018-08-31T23:57:45.188Z,6.63
